createdAt,value
2023-05-17T00:04:34.377Z,11.90
2023-05-17T00:09:37.464Z,11.90
2023-05-17T00:14:40.003Z,11.70
2023-05-17T00:19:42.619Z,11.60
2023-05-17T00:24:45.315Z,11.60
2023-05-17T00:29:47.790Z,11.50
2023-05-17T00:34:50.505Z,11.40
2023-05-17T00:39:54.184Z,11.40
2023-05-17T00:44:57.186Z,11.50
2023-05-17T00:50:00.014Z,11.40
2023-05-17T00:55:03.447Z,11.30
2023-05-17T01:00:07.026Z,11.20
2023-05-17T01:05:09.703Z,11.20
2023-05-17T01:10:12.657Z,11.10
2023-05-17T01:15:16.196Z,11.00
2023-05-17T01:20:29.145Z,11.10
2023-05-17T01:26:00.231Z,11.00
2023-05-17T01:31:03.977Z,11.00
2023-05-17T01:36:07.085Z,11.00
2023-05-17T01:41:33.201Z,10.90
2023-05-17T01:46:41.671Z,10.90
2023-05-17T01:52:19.225Z,10.80
2023-05-17T01:57:29.339Z,10.80
2023-05-17T02:02:32.087Z,10.90
2023-05-17T02:07:34.803Z,10.70
2023-05-17T02:12:37.452Z,10.80
2023-05-17T02:17:43.084Z,10.70
2023-05-17T02:22:45.933Z,10.70
2023-05-17T02:27:48.515Z,10.60
2023-05-17T02:32:52.333Z,10.60
2023-05-17T02:37:54.983Z,10.50
2023-05-17T02:42:57.702Z,10.60
2023-05-17T02:48:00.281Z,10.60
2023-05-17T02:53:02.943Z,10.60
2023-05-17T02:58:05.487Z,10.50
2023-05-17T03:03:09.042Z,10.40
2023-05-17T03:08:12.074Z,10.30
2023-05-17T03:13:14.781Z,10.30
2023-05-17T03:18:17.709Z,10.20
2023-05-17T03:28:38.321Z,10.20
2023-05-17T03:33:41.302Z,10.20
2023-05-17T03:38:44.131Z,10.10
2023-05-17T03:43:46.693Z,10.10
2023-05-17T03:53:59.377Z,10.20
2023-05-17T03:59:03.783Z,10.20
2023-05-17T04:09:11.255Z,10.20
2023-05-17T04:19:19.189Z,10.00
2023-05-17T04:24:22.010Z,10.00
2023-05-17T04:29:25.662Z,10.00
2023-05-17T04:34:28.363Z,9.90
2023-05-17T04:39:32.493Z,10.00
2023-05-17T04:49:38.737Z,10.10
2023-05-17T04:54:41.374Z,10.20
2023-05-17T05:09:53.323Z,10.30
2023-05-17T05:20:04.594Z,10.50
2023-05-17T05:25:07.921Z,10.50
2023-05-17T05:30:11.471Z,10.60
2023-05-17T05:35:14.511Z,10.70
2023-05-17T05:40:17.222Z,10.70
2023-05-17T05:45:21.720Z,10.80
2023-05-17T05:50:25.687Z,10.70
2023-05-17T05:55:32.754Z,10.80
2023-05-17T06:00:37.389Z,10.70
2023-05-17T06:05:40.720Z,10.80
2023-05-17T06:10:43.464Z,10.80
2023-05-17T06:15:46.049Z,10.90
2023-05-17T06:20:51.484Z,10.90
2023-05-17T06:25:54.048Z,10.90
2023-05-17T06:30:56.580Z,11.00
2023-05-17T06:41:09.222Z,11.10
2023-05-17T06:46:11.862Z,11.50
2023-05-17T06:51:14.850Z,11.70
2023-05-17T06:56:17.441Z,12.00
2023-05-17T07:01:20.594Z,11.90
2023-05-17T07:06:23.308Z,12.20
2023-05-17T07:11:25.864Z,12.10
2023-05-17T07:16:28.815Z,12.20
2023-05-17T07:21:32.390Z,12.00
2023-05-17T07:26:35.529Z,11.90
2023-05-17T07:31:38.109Z,11.80
2023-05-17T07:36:40.934Z,12.00
2023-05-17T07:41:43.755Z,12.00
2023-05-17T07:46:46.664Z,11.90
2023-05-17T07:51:49.278Z,11.90
2023-05-17T07:56:53.289Z,11.60
2023-05-17T08:01:56.241Z,11.60
2023-05-17T08:07:00.944Z,11.60
2023-05-17T08:12:03.650Z,11.70
2023-05-17T08:17:06.374Z,12.20
2023-05-17T08:22:09.557Z,12.10
2023-05-17T08:27:12.304Z,12.50
2023-05-17T08:32:14.813Z,13.40
2023-05-17T08:37:19.096Z,14.00
2023-05-17T08:42:27.922Z,13.70
2023-05-17T08:47:34.324Z,14.50
2023-05-17T08:52:38.157Z,14.60
2023-05-17T08:57:41.744Z,14.90
2023-05-17T09:02:44.279Z,14.60
2023-05-17T09:07:49.471Z,15.10
2023-05-17T09:12:53.596Z,14.60
2023-05-17T09:17:58.424Z,15.40
2023-05-17T09:23:02.121Z,15.40
2023-05-17T09:28:08.329Z,15.30
2023-05-17T09:33:13.248Z,14.70
2023-05-17T09:38:17.802Z,15.10
2023-05-17T09:43:25.975Z,14.70
2023-05-17T09:48:29.148Z,15.60
2023-05-17T09:53:33.856Z,15.30
2023-05-17T09:58:39.537Z,15.10
2023-05-17T10:03:42.652Z,15.10
2023-05-17T10:08:51.185Z,15.10
2023-05-17T10:14:05.318Z,15.00
2023-05-17T10:19:09.244Z,14.90
2023-05-17T10:24:12.556Z,14.90
2023-05-17T10:29:16.260Z,15.40
2023-05-17T10:34:20.346Z,15.90
2023-05-17T10:39:24.154Z,15.50
2023-05-17T10:44:27.702Z,15.40
2023-05-17T10:49:32.889Z,15.40
2023-05-17T10:54:39.410Z,15.90
2023-05-17T10:59:59.150Z,15.60
2023-05-17T11:05:02.497Z,15.90
2023-05-17T11:10:17.111Z,16.50
2023-05-17T11:15:25.675Z,15.90
2023-05-17T11:20:28.567Z,15.50
2023-05-17T11:25:36.474Z,15.70
2023-05-17T11:36:56.543Z,14.80
2023-05-17T11:41:59.195Z,15.10
2023-05-17T11:47:06.455Z,15.40
2023-05-17T11:52:10.339Z,15.20
2023-05-17T11:57:16.799Z,15.20
2023-05-17T12:02:33.054Z,15.60
2023-05-17T12:07:37.491Z,15.40
2023-05-17T12:12:41.616Z,15.30
2023-05-17T12:17:47.282Z,15.50
2023-05-17T12:22:55.628Z,15.80
2023-05-17T12:28:17.054Z,15.80
2023-05-17T12:33:20.209Z,15.70
2023-05-17T12:38:23.630Z,16.10
2023-05-17T12:43:26.454Z,15.90
2023-05-17T12:48:29.199Z,15.70
2023-05-17T12:53:43.014Z,15.70
2023-05-17T12:59:04.877Z,16.00
2023-05-17T13:04:07.751Z,15.40
2023-05-17T13:09:10.990Z,15.10
2023-05-17T13:14:13.836Z,15.20
2023-05-17T13:19:16.454Z,14.80
2023-05-17T13:24:19.149Z,15.00
2023-05-17T13:29:35.256Z,14.70
2023-05-17T13:34:41.916Z,14.40
2023-05-17T13:39:44.714Z,14.30
2023-05-17T13:44:48.649Z,14.30
2023-05-17T13:49:51.106Z,14.30
2023-05-17T13:54:53.800Z,14.10
2023-05-17T13:59:56.346Z,14.10
2023-05-17T14:04:59.207Z,14.10
2023-05-17T14:10:02.170Z,14.10
2023-05-17T14:15:05.203Z,14.00
2023-05-17T14:20:08.533Z,13.90
2023-05-17T14:25:11.782Z,13.80
2023-05-17T14:30:15.064Z,13.80
2023-05-17T14:35:18.426Z,13.70
2023-05-17T14:40:21.191Z,13.50
2023-05-17T14:45:23.825Z,13.40
2023-05-17T14:50:26.866Z,13.40
2023-05-17T14:55:30.055Z,13.40
2023-05-17T15:00:33.459Z,13.60
2023-05-17T15:05:36.298Z,13.70
2023-05-17T15:10:38.864Z,13.60
2023-05-17T15:15:42.893Z,13.60
2023-05-17T15:20:45.358Z,13.50
2023-05-17T15:25:47.855Z,13.30
2023-05-17T15:31:00.691Z,13.20
2023-05-17T15:36:03.332Z,13.00
2023-05-17T15:41:07.541Z,13.00
2023-05-17T15:46:10.346Z,12.80
2023-05-17T15:51:13.275Z,12.90
2023-05-17T15:56:17.594Z,12.90
2023-05-17T16:01:20.154Z,12.70
2023-05-17T16:06:22.774Z,12.60
2023-05-17T16:11:25.400Z,12.50
2023-05-17T16:16:27.938Z,12.40
2023-05-17T16:21:31.386Z,12.30
2023-05-17T16:26:35.764Z,12.20
2023-05-17T16:31:38.362Z,12.20
2023-05-17T16:36:40.873Z,12.20
2023-05-17T16:41:43.423Z,12.20
2023-05-17T16:46:46.227Z,12.10
2023-05-17T16:51:50.966Z,12.10
2023-05-17T16:56:53.546Z,12.00
2023-05-17T17:01:56.641Z,12.00
2023-05-17T17:06:59.287Z,11.70
2023-05-17T17:12:04.704Z,11.70
2023-05-17T17:17:15.282Z,11.60
2023-05-17T17:22:18.131Z,11.50
2023-05-17T17:27:20.711Z,11.40
2023-05-17T17:32:23.313Z,11.40
2023-05-17T17:42:31.430Z,11.20
2023-05-17T17:47:39.368Z,11.10
2023-05-17T17:52:42.025Z,11.00
2023-05-17T17:57:44.805Z,11.00
2023-05-17T18:02:47.432Z,10.90
2023-05-17T18:07:49.952Z,10.90
2023-05-17T18:12:52.495Z,10.80
2023-05-17T18:17:56.962Z,10.70
2023-05-17T18:22:59.579Z,10.70
2023-05-17T18:28:02.176Z,10.70
2023-05-17T18:33:07.062Z,10.70
2023-05-17T18:38:09.996Z,10.60
2023-05-17T18:43:12.991Z,10.50
2023-05-17T18:48:15.757Z,10.60
2023-05-17T18:53:18.673Z,10.60
2023-05-17T18:58:22.199Z,10.60
2023-05-17T19:03:24.826Z,10.50
2023-05-17T19:08:29.945Z,10.50
2023-05-17T19:13:33.280Z,10.50
2023-05-17T19:18:36.125Z,10.50
2023-05-17T19:23:39.393Z,10.50
2023-05-17T19:28:42.069Z,10.50
2023-05-17T19:33:44.756Z,10.60
2023-05-17T19:38:48.889Z,10.60
2023-05-17T19:43:54.339Z,10.50
2023-05-17T19:48:57.378Z,10.60
2023-05-17T19:59:07.851Z,10.50
2023-05-17T20:04:10.708Z,10.50
2023-05-17T20:09:13.444Z,10.40
2023-05-17T20:19:19.413Z,10.30
2023-05-17T20:29:27.380Z,10.20
2023-05-17T20:34:30.178Z,10.20
2023-05-17T20:39:32.898Z,10.10
2023-05-17T20:44:35.828Z,10.20
2023-05-17T20:49:38.716Z,10.10
2023-05-17T20:59:45.405Z,10.00
2023-05-17T21:04:47.951Z,9.90
2023-05-17T21:09:50.535Z,9.90
2023-05-17T21:15:07.968Z,9.70
2023-05-17T21:30:24.180Z,9.70
2023-05-17T21:40:29.861Z,9.50
2023-05-17T21:50:37.901Z,9.50
2023-05-17T22:01:03.930Z,9.40
2023-05-17T22:11:11.024Z,9.30
2023-05-17T22:26:20.066Z,9.20
2023-05-17T22:56:39.326Z,8.70
2023-05-17T23:01:42.055Z,8.70
2023-05-17T23:06:44.665Z,8.60
2023-05-17T23:11:47.530Z,8.60
2023-05-17T23:16:50.197Z,8.40
2023-05-17T23:21:52.730Z,8.40
2023-05-17T23:26:58.847Z,8.50
2023-05-17T23:32:01.634Z,8.40
2023-05-17T23:37:04.187Z,8.30
2023-05-17T23:42:06.955Z,8.40
2023-05-17T23:47:13.176Z,8.30
2023-05-17T23:52:18.832Z,8.20
2023-05-17T23:57:21.436Z,8.20
